createdAt,value
2022-09-06T00:00:18.596Z,10.80
2022-09-06T00:02:45.651Z,8.40
2022-09-06T00:05:13.557Z,7.70
2022-09-06T00:07:41.301Z,8.80
2022-09-06T00:10:08.975Z,7.60
2022-09-06T00:12:36.058Z,7.60
2022-09-06T00:15:04.855Z,8.00
2022-09-06T00:17:32.599Z,7.10
2022-09-06T00:19:59.656Z,7.30
2022-09-06T00:22:26.746Z,7.20
2022-09-06T00:24:53.668Z,8.60
2022-09-06T00:27:21.245Z,7.70
2022-09-06T00:29:48.181Z,8.90
2022-09-06T00:32:15.232Z,7.10
2022-09-06T00:34:42.491Z,7.10
2022-09-06T00:37:09.454Z,7.90
2022-09-06T00:39:36.638Z,7.90
2022-09-06T00:42:10.483Z,7.00
2022-09-06T00:44:37.989Z,8.80
2022-09-06T00:47:05.754Z,9.40
2022-09-06T00:49:39.599Z,10.80
2022-09-06T00:52:08.369Z,7.60
2022-09-06T00:54:35.222Z,7.10
2022-09-06T00:57:02.271Z,8.80
2022-09-06T00:59:30.955Z,8.70
2022-09-06T01:01:58.333Z,6.20
2022-09-06T01:04:25.614Z,7.20
2022-09-06T01:06:57.962Z,7.80
2022-09-06T01:09:32.800Z,7.70
2022-09-06T01:12:18.901Z,8.70
2022-09-06T01:15:12.894Z,11.90
2022-09-06T01:18:20.211Z,7.20
2022-09-06T01:20:56.456Z,7.20
2022-09-06T01:23:45.015Z,7.00
2022-09-06T01:26:25.111Z,7.00
2022-09-06T01:28:52.133Z,8.70
2022-09-06T01:31:32.298Z,10.70
2022-09-06T01:34:08.572Z,7.80
2022-09-06T01:37:08.390Z,10.60
2022-09-06T01:39:36.691Z,9.70
2022-09-06T01:42:18.619Z,9.70
2022-09-06T01:44:58.346Z,10.20
2022-09-06T01:47:45.464Z,8.10
2022-09-06T01:50:52.662Z,9.70
2022-09-06T01:54:14.090Z,10.00
2022-09-06T01:57:28.352Z,9.90
2022-09-06T02:00:09.440Z,9.60
2022-09-06T02:02:42.490Z,9.10
2022-09-06T02:05:13.492Z,10.20
2022-09-06T02:07:40.544Z,8.70
2022-09-06T02:10:09.696Z,10.90
2022-09-06T02:12:38.412Z,9.80
2022-09-06T02:15:07.359Z,8.90
2022-09-06T02:17:38.087Z,8.40
2022-09-06T02:20:09.897Z,9.60
2022-09-06T02:22:41.944Z,9.20
2022-09-06T02:25:10.449Z,11.20
2022-09-06T02:27:37.989Z,11.40
2022-09-06T02:30:06.474Z,8.00
2022-09-06T02:32:37.527Z,9.20
2022-09-06T02:35:09.570Z,9.80
2022-09-06T02:37:36.550Z,13.60
2022-09-06T02:40:04.372Z,10.50
2022-09-06T02:42:31.476Z,9.00
2022-09-06T02:44:58.425Z,8.60
2022-09-06T02:47:25.383Z,9.40
2022-09-06T02:49:52.336Z,10.60
2022-09-06T02:52:19.395Z,9.80
2022-09-06T02:54:46.649Z,11.20
2022-09-06T02:57:13.711Z,11.70
2022-09-06T02:59:41.172Z,9.70
2022-09-06T03:02:08.303Z,15.50
2022-09-06T03:04:35.391Z,12.10
2022-09-06T03:07:02.346Z,14.50
2022-09-06T03:09:29.496Z,10.90
2022-09-06T03:11:57.161Z,11.70
2022-09-06T03:14:24.616Z,11.70
2022-09-06T03:16:52.015Z,17.90
2022-09-06T03:19:20.358Z,11.80
2022-09-06T03:21:47.403Z,9.90
2022-09-06T03:24:14.350Z,10.00
2022-09-06T03:26:41.812Z,10.60
2022-09-06T03:29:09.172Z,10.90
2022-09-06T03:31:36.122Z,26.40
2022-09-06T03:34:05.322Z,22.30
2022-09-06T03:36:34.312Z,13.40
2022-09-06T03:39:01.260Z,13.10
2022-09-06T03:41:28.209Z,13.10
2022-09-06T03:43:55.192Z,17.30
2022-09-06T03:46:22.297Z,12.20
2022-09-06T03:48:50.274Z,11.80
2022-09-06T03:51:17.322Z,12.60
2022-09-06T03:53:44.579Z,11.10
2022-09-06T03:56:11.620Z,8.80
2022-09-06T03:58:38.670Z,10.80
2022-09-06T04:01:09.875Z,10.10
2022-09-06T04:03:37.482Z,10.20
2022-09-06T04:06:05.150Z,19.90
2022-09-06T04:08:32.147Z,8.90
2022-09-06T04:10:59.443Z,9.70
2022-09-06T04:13:27.541Z,10.80
2022-09-06T04:15:55.138Z,13.40
2022-09-06T04:18:22.486Z,9.90
2022-09-06T04:20:50.578Z,9.90
2022-09-06T04:23:17.855Z,10.80
2022-09-06T04:25:52.241Z,10.80
2022-09-06T04:28:19.399Z,11.00
2022-09-06T04:30:51.979Z,12.00
2022-09-06T04:33:18.935Z,9.10
2022-09-06T04:35:50.184Z,13.30
2022-09-06T04:38:17.355Z,10.40
2022-09-06T04:40:44.309Z,11.90
2022-09-06T04:43:14.649Z,15.20
2022-09-06T04:45:42.859Z,17.30
2022-09-06T04:48:09.868Z,11.80
2022-09-06T04:50:37.438Z,11.20
2022-09-06T04:53:05.397Z,13.40
2022-09-06T04:55:34.132Z,10.40
2022-09-06T04:58:01.549Z,8.30
2022-09-06T05:00:28.900Z,8.60
2022-09-06T05:02:55.844Z,8.50
2022-09-06T05:05:23.404Z,8.80
2022-09-06T05:07:54.652Z,10.10
2022-09-06T05:10:22.829Z,8.70
2022-09-06T05:12:50.593Z,8.70
2022-09-06T05:15:18.155Z,9.70
2022-09-06T05:17:45.611Z,8.50
2022-09-06T05:20:13.486Z,10.70
2022-09-06T05:22:40.738Z,11.90
2022-09-06T05:25:09.080Z,13.40
2022-09-06T05:27:36.371Z,10.60
2022-09-06T05:30:04.704Z,9.30
2022-09-06T05:32:32.293Z,8.30
2022-09-06T05:35:00.091Z,10.50
2022-09-06T05:37:27.225Z,10.90
2022-09-06T05:39:54.555Z,9.10
2022-09-06T05:42:21.734Z,7.40
2022-09-06T05:44:48.686Z,9.80
2022-09-06T05:47:15.970Z,10.50
2022-09-06T05:49:44.155Z,9.30
2022-09-06T05:52:11.184Z,16.20
2022-09-06T05:54:38.858Z,9.30
2022-09-06T05:57:06.117Z,8.50
2022-09-06T05:59:33.170Z,11.40
2022-09-06T06:02:04.362Z,8.30
2022-09-06T06:04:34.768Z,9.60
2022-09-06T06:07:02.948Z,10.20
2022-09-06T06:09:31.031Z,9.50
2022-09-06T06:11:58.489Z,15.10
2022-09-06T06:14:26.578Z,8.70
2022-09-06T06:16:53.738Z,9.30
2022-09-06T06:19:20.709Z,9.20
2022-09-06T06:21:47.532Z,9.30
2022-09-06T06:24:14.644Z,8.80
2022-09-06T06:26:41.634Z,7.30
2022-09-06T06:29:09.913Z,12.90
2022-09-06T06:31:39.414Z,16.40
2022-09-06T06:34:07.484Z,9.80
2022-09-06T06:36:35.841Z,14.40
2022-09-06T06:39:04.513Z,7.50
2022-09-06T06:41:32.217Z,8.90
2022-09-06T06:44:03.729Z,9.70
2022-09-06T06:46:35.985Z,7.50
2022-09-06T06:49:03.000Z,9.40
2022-09-06T06:51:31.792Z,7.40
2022-09-06T06:53:58.790Z,8.30
2022-09-06T06:56:30.485Z,10.10
2022-09-06T06:58:59.282Z,8.10
2022-09-06T07:01:27.040Z,9.80
2022-09-06T07:03:54.735Z,12.60
2022-09-06T07:06:22.395Z,7.10
2022-09-06T07:09:09.757Z,6.10
2022-09-06T07:11:38.637Z,8.40
2022-09-06T07:14:05.674Z,7.80
2022-09-06T07:16:32.706Z,11.90
2022-09-06T07:19:00.639Z,6.40
2022-09-06T07:21:43.142Z,6.00
2022-09-06T07:24:10.659Z,8.10
2022-09-06T07:26:39.006Z,8.10
2022-09-06T07:29:07.483Z,13.90
2022-09-06T07:34:22.461Z,7.70
2022-09-06T07:36:56.008Z,6.00
2022-09-06T07:39:23.225Z,8.10
2022-09-06T07:41:50.405Z,10.00
2022-09-06T07:44:21.550Z,6.70
2022-09-06T07:46:48.720Z,8.40
2022-09-06T07:49:15.846Z,7.80
2022-09-06T07:51:42.790Z,8.80
2022-09-06T07:56:56.857Z,7.80
2022-09-06T07:59:23.940Z,9.30
2022-09-06T08:01:53.422Z,7.50
2022-09-06T08:04:20.457Z,8.50
2022-09-06T08:09:36.259Z,14.30
2022-09-06T08:12:07.055Z,11.60
2022-09-06T08:14:35.778Z,12.40
2022-09-06T08:17:03.851Z,6.40
2022-09-06T08:19:31.202Z,8.50
2022-09-06T08:21:58.149Z,8.90
2022-09-06T08:24:25.093Z,5.80
2022-09-06T08:26:53.202Z,9.40
2022-09-06T08:29:20.314Z,7.30
2022-09-06T08:31:47.470Z,7.40
2022-09-06T08:34:15.426Z,7.90
2022-09-06T08:36:42.800Z,10.90
2022-09-06T08:39:10.410Z,7.80
2022-09-06T08:41:46.012Z,7.90
2022-09-06T08:47:15.547Z,7.70
2022-09-06T08:49:47.461Z,7.60
2022-09-06T08:52:44.960Z,5.70
2022-09-06T08:55:31.582Z,6.70
2022-09-06T08:58:35.816Z,7.10
2022-09-06T09:01:13.660Z,5.60
2022-09-06T09:03:40.669Z,7.30
2022-09-06T09:06:09.471Z,8.30
2022-09-06T09:08:36.928Z,6.30
2022-09-06T09:11:06.571Z,7.60
2022-09-06T09:13:39.630Z,8.00
2022-09-06T09:16:06.939Z,10.40
2022-09-06T09:18:35.954Z,7.60
2022-09-06T09:21:02.930Z,8.80
2022-09-06T09:23:31.242Z,14.00
2022-09-06T09:26:14.542Z,7.70
2022-09-06T09:29:12.920Z,6.60
2022-09-06T09:31:40.009Z,5.80
2022-09-06T09:34:11.525Z,7.90
2022-09-06T09:36:38.916Z,6.90
2022-09-06T09:39:10.842Z,6.50
2022-09-06T09:41:39.841Z,12.30
2022-09-06T09:44:10.199Z,9.90
2022-09-06T09:49:10.503Z,8.30
2022-09-06T09:51:48.194Z,8.70
2022-09-06T09:54:29.994Z,5.20
2022-09-06T09:56:56.862Z,6.10
2022-09-06T09:59:54.216Z,5.60
2022-09-06T10:02:34.526Z,4.40
2022-09-06T10:05:18.185Z,11.30
2022-09-06T10:07:51.615Z,5.10
2022-09-06T10:10:30.202Z,5.60
2022-09-06T10:13:29.837Z,4.80
2022-09-06T10:16:00.733Z,5.60
2022-09-06T10:18:37.690Z,6.80
2022-09-06T10:21:06.773Z,7.00
2022-09-06T10:26:49.995Z,5.30
2022-09-06T10:29:34.983Z,6.00
2022-09-06T10:32:08.764Z,7.50
2022-09-06T10:34:44.822Z,5.90
2022-09-06T10:37:21.198Z,4.90
2022-09-06T10:40:08.306Z,5.00
2022-09-06T10:42:43.649Z,6.10
2022-09-06T10:45:17.098Z,5.70
2022-09-06T10:47:47.881Z,6.80
2022-09-06T10:50:15.338Z,7.70
2022-09-06T10:52:44.297Z,5.40
2022-09-06T10:55:14.118Z,5.00
2022-09-06T11:00:46.851Z,6.60
2022-09-06T11:06:08.700Z,4.70
2022-09-06T11:08:58.149Z,5.50
2022-09-06T11:11:48.764Z,7.60
2022-09-06T11:14:16.224Z,7.80
2022-09-06T11:16:50.019Z,5.70
2022-09-06T11:19:22.919Z,5.40
2022-09-06T11:22:28.474Z,9.20
2022-09-06T11:25:29.627Z,6.10
2022-09-06T11:27:58.359Z,4.80
2022-09-06T11:30:25.882Z,5.60
2022-09-06T11:33:20.587Z,7.20
2022-09-06T11:35:47.534Z,8.00
2022-09-06T11:38:14.579Z,9.30
2022-09-06T11:40:44.571Z,8.50
2022-09-06T11:43:17.673Z,9.00
2022-09-06T11:45:51.331Z,7.30
2022-09-06T11:48:25.528Z,4.90
2022-09-06T11:50:58.935Z,6.50
2022-09-06T11:53:27.928Z,5.30
2022-09-06T11:56:01.127Z,5.30
2022-09-06T11:58:31.143Z,8.20
2022-09-06T12:01:14.172Z,5.30
2022-09-06T12:06:43.074Z,6.40
2022-09-06T12:09:47.193Z,5.10
2022-09-06T12:12:41.591Z,4.90
2022-09-06T12:15:25.900Z,5.70
2022-09-06T12:17:53.412Z,8.00
2022-09-06T12:20:48.520Z,9.50
2022-09-06T12:23:37.292Z,4.50
2022-09-06T12:26:10.078Z,5.10
2022-09-06T12:28:54.081Z,4.90
2022-09-06T12:31:33.497Z,8.50
2022-09-06T12:34:06.058Z,5.90
2022-09-06T12:36:32.937Z,4.90
2022-09-06T12:39:09.782Z,5.20
2022-09-06T12:41:43.107Z,5.30
2022-09-06T12:44:11.264Z,5.50
2022-09-06T12:46:40.126Z,5.80
2022-09-06T12:49:09.296Z,7.80
2022-09-06T12:51:38.159Z,5.50
2022-09-06T12:54:22.517Z,8.20
2022-09-06T12:56:49.976Z,10.50
2022-09-06T12:59:25.245Z,6.70
2022-09-06T13:02:05.893Z,6.30
2022-09-06T13:04:43.081Z,5.90
2022-09-06T13:07:13.318Z,6.60
2022-09-06T13:09:42.127Z,5.60
2022-09-06T13:12:19.287Z,7.00
2022-09-06T13:14:46.338Z,6.00
2022-09-06T13:17:26.292Z,5.20
2022-09-06T13:19:53.379Z,6.30
2022-09-06T13:22:42.213Z,6.00
2022-09-06T13:25:35.963Z,5.00
2022-09-06T13:28:03.757Z,6.40
2022-09-06T13:30:36.440Z,6.70
2022-09-06T13:33:04.414Z,8.90
2022-09-06T13:35:34.751Z,6.70
2022-09-06T13:41:15.886Z,7.50
2022-09-06T13:43:45.309Z,7.70
2022-09-06T13:46:12.426Z,9.10
2022-09-06T13:48:40.005Z,14.50
2022-09-06T13:51:08.086Z,11.20
2022-09-06T13:53:35.399Z,10.00
2022-09-06T13:56:03.363Z,8.20
2022-09-06T13:58:31.637Z,9.30
2022-09-06T14:00:58.844Z,8.90
2022-09-06T14:03:28.778Z,7.10
2022-09-06T14:05:56.582Z,6.20
2022-09-06T14:08:23.679Z,7.80
2022-09-06T14:10:51.430Z,11.80
2022-09-06T14:13:18.861Z,8.90
2022-09-06T14:15:47.470Z,12.00
2022-09-06T14:18:14.803Z,7.60
2022-09-06T14:20:42.119Z,6.80
2022-09-06T14:23:09.610Z,8.20
2022-09-06T14:25:38.173Z,9.10
2022-09-06T14:28:06.018Z,9.40
2022-09-06T14:30:33.514Z,6.90
2022-09-06T14:33:00.974Z,7.80
2022-09-06T14:35:28.633Z,6.90
2022-09-06T14:37:55.516Z,11.80
2022-09-06T14:40:22.422Z,7.90
2022-09-06T14:42:50.630Z,19.50
2022-09-06T14:45:18.773Z,8.20
2022-09-06T14:47:46.223Z,18.20
2022-09-06T14:50:13.477Z,9.50
2022-09-06T14:52:40.424Z,7.20
2022-09-06T14:55:07.799Z,10.80
2022-09-06T14:57:35.549Z,9.90
2022-09-06T15:00:06.258Z,14.80
2022-09-06T15:02:33.277Z,32.00
2022-09-06T15:05:00.367Z,18.10
2022-09-06T15:07:29.053Z,9.40
2022-09-06T15:09:56.407Z,7.40
2022-09-06T15:12:23.486Z,8.00
2022-09-06T15:14:50.499Z,7.90
2022-09-06T15:17:17.550Z,11.50
2022-09-06T15:19:46.067Z,8.80
2022-09-06T15:22:13.498Z,9.80
2022-09-06T15:24:40.857Z,10.30
2022-09-06T15:27:07.807Z,11.00
2022-09-06T15:29:34.753Z,10.00
2022-09-06T15:32:02.114Z,15.20
2022-09-06T15:34:29.776Z,13.20
2022-09-06T15:36:57.242Z,9.80
2022-09-06T15:39:24.344Z,10.50
2022-09-06T15:41:51.900Z,11.10
2022-09-06T15:44:19.725Z,12.00
2022-09-06T15:46:58.274Z,10.70
2022-09-06T15:49:33.918Z,10.00
2022-09-06T15:52:03.149Z,10.00
2022-09-06T15:54:48.726Z,13.70
2022-09-06T15:57:16.724Z,9.00
2022-09-06T15:59:44.433Z,8.50
2022-09-06T16:02:11.959Z,11.50
2022-09-06T16:04:39.123Z,10.00
2022-09-06T16:07:06.961Z,11.70
2022-09-06T16:09:33.872Z,11.40
2022-09-06T16:12:00.839Z,11.10
2022-09-06T16:14:29.165Z,14.90
2022-09-06T16:16:57.549Z,13.60
2022-09-06T16:19:26.239Z,10.70
2022-09-06T16:21:53.242Z,11.20
2022-09-06T16:24:21.576Z,11.70
2022-09-06T16:26:48.686Z,10.70
2022-09-06T16:29:16.697Z,14.30
2022-09-06T16:31:43.912Z,10.60
2022-09-06T16:34:11.830Z,9.70
2022-09-06T16:36:38.953Z,20.40
2022-09-06T16:39:06.486Z,12.40
2022-09-06T16:41:41.255Z,12.80
2022-09-06T16:44:09.235Z,11.50
2022-09-06T16:46:36.398Z,14.80
2022-09-06T16:49:04.666Z,13.00
2022-09-06T16:51:31.840Z,12.40
2022-09-06T16:53:59.612Z,9.60
2022-09-06T16:56:28.650Z,15.80
2022-09-06T16:58:57.106Z,12.00
2022-09-06T17:01:27.826Z,16.60
2022-09-06T17:03:56.134Z,12.00
2022-09-06T17:06:24.275Z,11.50
2022-09-06T17:08:52.198Z,14.80
2022-09-06T17:11:20.673Z,13.20
2022-09-06T17:13:49.588Z,11.30
2022-09-06T17:16:35.730Z,16.80
2022-09-06T17:19:02.751Z,11.50
2022-09-06T17:21:29.909Z,10.80
2022-09-06T17:23:58.808Z,11.90
2022-09-06T17:26:25.770Z,11.20
2022-09-06T17:28:52.721Z,11.30
2022-09-06T17:31:25.520Z,8.90
2022-09-06T17:33:53.633Z,10.70
2022-09-06T17:36:25.581Z,10.10
2022-09-06T17:38:54.117Z,9.80
2022-09-06T17:41:22.378Z,9.20
2022-09-06T17:43:50.744Z,10.60
2022-09-06T17:46:18.293Z,11.40
2022-09-06T17:48:45.716Z,9.60
2022-09-06T17:51:13.196Z,13.90
2022-09-06T17:53:41.483Z,10.50
2022-09-06T17:56:10.579Z,11.80
2022-09-06T17:58:37.599Z,9.50
2022-09-06T18:01:11.430Z,6.20
2022-09-06T18:03:42.338Z,11.00
2022-09-06T18:06:11.110Z,8.50
2022-09-06T18:08:40.570Z,7.20
2022-09-06T18:11:12.503Z,8.80
2022-09-06T18:13:40.080Z,9.00
2022-09-06T18:16:07.058Z,10.90
2022-09-06T18:18:34.543Z,5.60
2022-09-06T18:21:02.789Z,7.90
2022-09-06T18:23:30.978Z,8.30
2022-09-06T18:25:59.369Z,6.10
2022-09-06T18:28:28.041Z,7.10
2022-09-06T18:31:10.578Z,5.00
2022-09-06T18:33:38.429Z,7.00
2022-09-06T18:36:07.718Z,7.90
2022-09-06T18:38:35.042Z,5.80
2022-09-06T18:41:03.462Z,5.70
2022-09-06T18:43:32.634Z,6.10
2022-09-06T18:46:03.604Z,5.20
2022-09-06T18:48:34.629Z,5.00
2022-09-06T18:51:11.624Z,5.90
2022-09-06T18:53:42.708Z,4.70
2022-09-06T18:56:12.468Z,6.60
2022-09-06T18:58:39.682Z,6.00
2022-09-06T19:01:08.870Z,7.30
2022-09-06T19:03:36.719Z,6.70
2022-09-06T19:06:15.266Z,5.10
2022-09-06T19:08:42.500Z,6.40
2022-09-06T19:11:17.379Z,5.40
2022-09-06T19:13:45.243Z,5.20
2022-09-06T19:16:13.322Z,5.80
2022-09-06T19:18:40.655Z,6.40
2022-09-06T19:21:12.514Z,4.20
2022-09-06T19:23:41.107Z,4.50
2022-09-06T19:26:10.359Z,7.50
2022-09-06T19:28:38.202Z,6.30
2022-09-06T19:31:16.103Z,3.00
2022-09-06T19:33:43.855Z,6.30
2022-09-06T19:36:12.350Z,3.70
2022-09-06T19:38:59.596Z,6.00
2022-09-06T19:41:35.379Z,4.40
2022-09-06T19:44:05.872Z,4.70
2022-09-06T19:46:36.723Z,4.70
2022-09-06T19:49:08.373Z,6.00
2022-09-06T19:51:36.521Z,4.30
2022-09-06T19:54:03.792Z,4.40
2022-09-06T19:56:33.627Z,4.30
2022-09-06T19:59:02.758Z,6.60
2022-09-06T20:01:31.284Z,2.40
2022-09-06T20:03:58.923Z,5.60
2022-09-06T20:06:27.074Z,3.70
2022-09-06T20:08:55.565Z,3.70
2022-09-06T20:11:23.965Z,5.80
2022-09-06T20:13:51.007Z,6.10
2022-09-06T20:16:20.628Z,4.60
2022-09-06T20:18:48.718Z,6.10
2022-09-06T20:21:17.899Z,3.10
2022-09-06T20:23:50.869Z,3.30
2022-09-06T20:26:18.356Z,3.10
2022-09-06T20:28:46.291Z,5.90
2022-09-06T20:31:16.346Z,6.30
2022-09-06T20:33:48.766Z,6.50
2022-09-06T20:36:17.213Z,7.40
2022-09-06T20:38:45.805Z,3.70
2022-09-06T20:41:20.072Z,4.60
2022-09-06T20:43:51.439Z,6.10
2022-09-06T20:46:19.900Z,6.10
2022-09-06T20:48:47.013Z,3.40
2022-09-06T20:51:19.009Z,3.90
2022-09-06T20:53:53.100Z,4.50
2022-09-06T20:56:24.978Z,4.30
2022-09-06T20:58:56.703Z,4.00
2022-09-06T21:01:25.209Z,3.70
2022-09-06T21:03:57.799Z,6.20
2022-09-06T21:06:26.089Z,4.40
2022-09-06T21:08:53.237Z,4.70
2022-09-06T21:11:21.655Z,2.90
2022-09-06T21:13:52.670Z,11.10
2022-09-06T21:16:24.226Z,6.20
2022-09-06T21:18:52.362Z,3.30
2022-09-06T21:21:19.359Z,8.80
2022-09-06T21:23:46.309Z,4.90
2022-09-06T21:26:13.361Z,7.40
2022-09-06T21:28:40.826Z,5.70
2022-09-06T21:31:09.064Z,4.70
2022-09-06T21:33:36.769Z,1.80
2022-09-06T21:36:07.143Z,4.70
2022-09-06T21:38:34.868Z,2.70
2022-09-06T21:41:02.433Z,3.90
2022-09-06T21:43:30.716Z,4.30
2022-09-06T21:46:08.015Z,3.20
2022-09-06T21:48:38.959Z,6.90
2022-09-06T21:51:09.903Z,6.50
2022-09-06T21:53:36.951Z,3.10
2022-09-06T21:56:04.774Z,2.30
2022-09-06T21:58:31.880Z,3.50
2022-09-06T22:00:59.525Z,3.40
2022-09-06T22:03:27.456Z,2.90
2022-09-06T22:05:55.506Z,2.90
2022-09-06T22:08:22.965Z,6.40
2022-09-06T22:10:50.017Z,3.40
2022-09-06T22:13:17.275Z,4.30
2022-09-06T22:15:44.767Z,5.20
2022-09-06T22:18:11.999Z,2.90
2022-09-06T22:20:39.135Z,4.00
2022-09-06T22:23:07.064Z,4.40
2022-09-06T22:25:34.085Z,9.40
2022-09-06T22:28:01.555Z,3.20
2022-09-06T22:30:29.028Z,4.30
2022-09-06T22:32:57.091Z,4.70
2022-09-06T22:35:24.043Z,3.20
2022-09-06T22:37:50.999Z,7.50
2022-09-06T22:40:17.846Z,5.00
2022-09-06T22:42:44.695Z,2.30
2022-09-06T22:45:11.644Z,5.00
2022-09-06T22:47:38.597Z,2.60
2022-09-06T22:50:06.750Z,4.20
2022-09-06T22:52:33.729Z,4.30
2022-09-06T22:55:00.614Z,4.90
2022-09-06T22:57:27.537Z,4.90
2022-09-06T22:59:54.582Z,3.70
2022-09-06T23:02:21.639Z,1.70
2022-09-06T23:04:48.861Z,3.40
2022-09-06T23:07:16.005Z,3.90
2022-09-06T23:09:43.110Z,7.00
2022-09-06T23:12:10.082Z,3.80
2022-09-06T23:14:37.121Z,3.90
2022-09-06T23:17:04.100Z,5.20
2022-09-06T23:19:31.020Z,7.50
2022-09-06T23:21:58.180Z,1.80
2022-09-06T23:24:27.108Z,2.60
2022-09-06T23:26:55.152Z,5.90
2022-09-06T23:29:22.198Z,13.60
2022-09-06T23:31:49.200Z,2.60
2022-09-06T23:34:16.611Z,7.20
2022-09-06T23:36:44.074Z,4.50
2022-09-06T23:39:11.838Z,8.60
2022-09-06T23:41:38.723Z,1.50
2022-09-06T23:44:05.637Z,3.20
2022-09-06T23:46:33.857Z,3.00
2022-09-06T23:49:00.974Z,4.90
2022-09-06T23:51:27.929Z,5.50
2022-09-06T23:53:54.876Z,4.00
2022-09-06T23:56:22.642Z,3.20
2022-09-06T23:58:49.590Z,1.90
